General Aviation Weather

Text Reports

Enter one or more of the following location identifiers separated by a space:

Zip Code, Four-Character ICAO or Three-Character IATA airport codes.

METAR - Aviation Routine Weather Report
KILE - Killeen, Texas
Updated at 1:35 AM GMT on July 31, 2015 (8:35 PM CDT):
METAR KILE 310135Z AUTO 09003KT 10SM CLR 34/18 A3000 RMK AO1
TAF - Terminal Area Forecast
KILE - Killeen, Texas
Updated at 1:35 AM GMT on July 31, 2015 (8:35 PM CDT):
No TAF is currently available for this location.
Decoded:
No decoded TAF is available.
PIREP - Pilot Weather Report
KILE - Killeen, Texas
Updated at 1:35 AM GMT on July 31, 2015 (8:35 PM CDT):
No PIREP is currently available for this location.
AIRMET - Airmens Meteorological Information
KILE - Killeen, Texas
Updated at 1:35 AM GMT on July 31, 2015 (8:35 PM CDT):
No AIRMET is currently available for this location.
SIGMET - Significant Meteorological Information
KILE - Killeen, Texas
Updated at 1:35 AM GMT on July 31, 2015 (8:35 PM CDT):
No SIGMET is currently available for this location.
NOTAM - Notice to Airmen
KILE - Killeen, Texas
Updated at 1:35 AM GMT on July 31, 2015 (8:35 PM CDT):
No NOTAM is currently available for this location.
Forecast Area
KILE - Killeen, Texas
Updated at 1:35 AM GMT on July 31, 2015 (8:35 PM CDT):
No NOTAM is currently available for this location.
Aviation Weather Maps